createdAt,value
2023-03-17T00:02:47.859Z,21.95
2023-03-17T00:06:47.862Z,21.98
2023-03-17T00:10:47.838Z,21.97
2023-03-17T00:14:47.777Z,21.97
2023-03-17T00:18:47.718Z,22.00
2023-03-17T00:22:47.716Z,22.04
2023-03-17T00:26:47.654Z,21.98
2023-03-17T00:30:47.598Z,22.01
2023-03-17T00:34:47.595Z,21.98
2023-03-17T00:38:47.560Z,22.00
2023-03-17T00:42:47.548Z,22.00
2023-03-17T00:46:47.537Z,22.01
2023-03-17T00:50:47.508Z,22.03
2023-03-17T00:54:47.470Z,22.01
2023-03-17T00:58:47.375Z,22.06
2023-03-17T01:02:47.318Z,22.07
2023-03-17T01:06:47.293Z,22.10
2023-03-17T01:10:47.295Z,22.04
2023-03-17T01:14:47.274Z,22.06
2023-03-17T01:18:47.294Z,22.03
2023-03-17T01:22:47.201Z,22.09
2023-03-17T01:26:47.359Z,22.07
2023-03-17T01:30:47.384Z,22.08
2023-03-17T01:34:47.347Z,22.10
2023-03-17T01:38:47.278Z,22.10
2023-03-17T01:42:47.265Z,22.09
2023-03-17T01:46:47.204Z,22.12
2023-03-17T01:50:47.140Z,22.13
2023-03-17T01:54:47.113Z,22.16
2023-03-17T01:58:47.099Z,22.12
2023-03-17T02:02:47.087Z,22.18
2023-03-17T02:06:57.562Z,22.13
2023-03-17T02:10:48.011Z,22.16
2023-03-17T02:14:46.972Z,22.15
2023-03-17T02:18:47.195Z,22.23
2023-03-17T02:22:47.367Z,22.19
2023-03-17T02:26:47.427Z,22.19
2023-03-17T02:30:47.563Z,22.22
2023-03-17T02:34:47.631Z,22.16
2023-03-17T02:38:47.665Z,22.16
2023-03-17T02:42:47.708Z,22.17
2023-03-17T02:46:47.730Z,22.20
2023-03-17T02:50:47.743Z,22.17
2023-03-17T02:54:47.651Z,22.20
2023-03-17T02:58:47.778Z,22.25
2023-03-17T03:02:47.947Z,22.22
2023-03-17T03:06:47.872Z,22.19
2023-03-17T03:10:47.878Z,22.26
2023-03-17T03:14:47.902Z,22.23
2023-03-17T03:18:47.892Z,22.23
2023-03-17T03:22:47.947Z,22.22
2023-03-17T03:26:47.984Z,22.28
2023-03-17T03:30:47.901Z,22.24
2023-03-17T03:34:47.898Z,22.31
2023-03-17T03:38:47.959Z,22.27
2023-03-17T03:42:47.981Z,22.23
2023-03-17T03:46:48.197Z,22.27
2023-03-17T03:50:48.171Z,22.24
2023-03-17T03:54:48.168Z,22.27
2023-03-17T03:58:48.192Z,22.26
2023-03-17T04:02:48.249Z,22.27
2023-03-17T04:06:48.186Z,22.33
2023-03-17T04:10:48.190Z,22.29
2023-03-17T04:14:48.209Z,22.33
2023-03-17T04:18:48.284Z,22.35
2023-03-17T04:22:48.326Z,22.33
2023-03-17T04:26:48.295Z,22.27
2023-03-17T04:30:48.389Z,22.30
2023-03-17T04:34:48.332Z,22.32
2023-03-17T04:38:48.374Z,22.32
2023-03-17T04:42:48.402Z,22.32
2023-03-17T04:46:48.344Z,22.33
2023-03-17T04:50:48.456Z,22.32
2023-03-17T04:54:48.444Z,22.33
2023-03-17T04:58:48.358Z,22.33
2023-03-17T05:02:48.388Z,22.33
2023-03-17T05:06:48.418Z,22.21
2023-03-17T05:10:48.437Z,22.05
2023-03-17T05:14:48.584Z,21.97
2023-03-17T05:18:48.705Z,21.80
2023-03-17T05:22:48.773Z,21.74
2023-03-17T05:26:48.897Z,21.62
2023-03-17T05:30:49.104Z,21.59
2023-03-17T05:34:49.057Z,21.57
2023-03-17T05:38:49.081Z,21.63
2023-03-17T05:42:49.178Z,21.66
2023-03-17T05:46:49.165Z,21.72
2023-03-17T05:50:49.127Z,21.81
2023-03-17T05:54:49.288Z,21.84
2023-03-17T05:58:49.195Z,21.88
2023-03-17T06:02:49.172Z,21.90
2023-03-17T06:06:49.173Z,21.97
2023-03-17T06:10:49.207Z,22.02
2023-03-17T06:14:49.297Z,22.22
2023-03-17T06:18:49.420Z,22.05
2023-03-17T06:23:03.181Z,21.72
2023-03-17T06:26:50.496Z,21.59
2023-03-17T06:30:49.449Z,21.35
2023-03-17T06:34:49.490Z,21.30
2023-03-17T06:38:49.351Z,21.42
2023-03-17T06:42:49.389Z,21.00
2023-03-17T06:46:49.536Z,21.48
2023-03-17T06:50:49.564Z,21.49
2023-03-17T06:54:49.571Z,21.73
2023-03-17T06:58:49.696Z,21.51
2023-03-17T07:02:49.730Z,21.19
2023-03-17T07:06:49.649Z,21.28
2023-03-17T07:10:49.715Z,21.34
2023-03-17T07:14:49.873Z,21.00
2023-03-17T07:18:50.068Z,20.94
2023-03-17T07:22:50.208Z,20.93
2023-03-17T07:26:50.694Z,21.04
2023-03-17T07:30:50.583Z,20.73
2023-03-17T07:34:50.689Z,20.67
2023-03-17T07:38:50.846Z,20.44
2023-03-17T07:42:50.906Z,20.23
2023-03-17T07:46:50.954Z,20.50
2023-03-17T07:50:51.072Z,20.96
2023-03-17T07:54:51.027Z,21.02
2023-03-17T07:58:51.016Z,20.62
2023-03-17T08:03:06.894Z,20.46
2023-03-17T08:06:51.921Z,20.62
2023-03-17T08:10:50.941Z,20.75
2023-03-17T08:14:50.918Z,20.89
2023-03-17T08:18:51.119Z,20.97
2023-03-17T08:22:51.253Z,21.14
2023-03-17T08:26:51.411Z,21.18
2023-03-17T08:30:52.891Z,21.24
2023-03-17T08:34:51.453Z,21.21
2023-03-17T08:38:52.354Z,20.32
2023-03-17T08:42:51.575Z,19.84
2023-03-17T08:46:51.634Z,20.16
2023-03-17T08:50:51.771Z,20.31
2023-03-17T08:54:51.610Z,20.47
2023-03-17T08:58:51.739Z,20.85
2023-03-17T09:02:52.047Z,20.73
2023-03-17T09:07:02.892Z,20.63
2023-03-17T09:10:53.092Z,20.76
2023-03-17T09:14:52.064Z,20.15
2023-03-17T09:18:52.161Z,19.50
2023-03-17T09:22:52.268Z,19.85
2023-03-17T09:26:52.382Z,20.21
2023-03-17T09:30:52.970Z,20.58
2023-03-17T09:34:52.245Z,20.67
2023-03-17T09:38:52.216Z,20.79
2023-03-17T09:42:52.178Z,20.92
2023-03-17T09:46:52.248Z,20.72
2023-03-17T09:50:52.128Z,20.79
2023-03-17T09:54:52.044Z,19.00
2023-03-17T09:58:51.997Z,19.19
2023-03-17T10:02:52.048Z,18.15
2023-03-17T10:06:51.959Z,19.20
2023-03-17T10:10:51.939Z,19.78
2023-03-17T10:14:51.871Z,20.00
2023-03-17T10:18:52.004Z,19.81
2023-03-17T10:22:52.157Z,19.90
2023-03-17T10:26:52.229Z,19.78
2023-03-17T10:30:52.354Z,20.11
2023-03-17T10:34:52.373Z,20.44
2023-03-17T10:38:52.412Z,21.21
2023-03-17T10:42:52.440Z,21.27
2023-03-17T10:46:52.551Z,21.39
2023-03-17T10:50:54.205Z,19.41
2023-03-17T10:54:52.641Z,18.48
2023-03-17T10:58:52.753Z,18.29
2023-03-17T11:02:52.927Z,20.06
2023-03-17T11:06:53.152Z,19.23
2023-03-17T11:10:53.344Z,19.32
2023-03-17T11:14:55.886Z,19.15
2023-03-17T11:18:55.916Z,19.42
2023-03-17T11:22:53.672Z,20.16
2023-03-17T11:26:53.646Z,18.10
2023-03-17T11:30:53.598Z,20.42
2023-03-17T11:34:53.559Z,20.55
2023-03-17T11:38:53.513Z,20.08
2023-03-17T11:42:54.760Z,20.56
2023-03-17T11:46:53.471Z,21.29
2023-03-17T11:50:53.426Z,20.53
2023-03-17T11:54:54.592Z,20.32
2023-03-17T11:58:53.555Z,21.00
2023-03-17T12:02:53.719Z,21.45
2023-03-17T12:06:55.405Z,21.36
2023-03-17T12:10:53.696Z,18.84
2023-03-17T12:14:53.888Z,18.77
2023-03-17T12:18:53.879Z,20.12
2023-03-17T12:22:55.826Z,20.66
2023-03-17T12:26:54.176Z,20.43
2023-03-17T12:30:54.195Z,19.94
2023-03-17T12:34:56.687Z,19.31
2023-03-17T12:38:54.303Z,19.41
2023-03-17T12:42:54.305Z,19.15
2023-03-17T12:46:54.246Z,18.28
2023-03-17T12:50:54.275Z,18.07
2023-03-17T12:54:54.211Z,17.97
2023-03-17T12:58:54.178Z,17.71
2023-03-17T13:02:54.124Z,17.65
2023-03-17T13:06:54.113Z,17.96
2023-03-17T13:10:54.109Z,17.48
2023-03-17T13:14:54.033Z,17.25
2023-03-17T13:18:53.962Z,16.67
2023-03-17T13:22:54.109Z,16.88
2023-03-17T13:26:55.170Z,16.53
2023-03-17T13:30:54.506Z,16.53
2023-03-17T13:34:54.636Z,16.22
2023-03-17T13:39:15.148Z,16.53
2023-03-17T13:42:55.819Z,16.35
2023-03-17T13:46:54.894Z,16.24
2023-03-17T13:50:54.772Z,16.06
2023-03-17T13:54:54.886Z,15.94
2023-03-17T13:58:55.048Z,15.94
2023-03-17T14:02:55.182Z,15.85
2023-03-17T14:06:55.366Z,15.93
2023-03-17T14:10:55.489Z,15.55
2023-03-17T14:14:55.678Z,15.76
2023-03-17T14:18:55.884Z,15.76
2023-03-17T14:22:56.399Z,15.70
2023-03-17T14:26:56.160Z,15.83
2023-03-17T14:30:56.294Z,15.94
2023-03-17T14:34:56.471Z,15.70
2023-03-17T14:38:56.625Z,15.76
2023-03-17T14:42:56.817Z,15.88
2023-03-17T14:46:56.971Z,15.65
2023-03-17T14:50:57.205Z,15.65
2023-03-17T14:54:57.441Z,15.54
2023-03-17T14:58:57.361Z,15.57
2023-03-17T15:02:57.331Z,15.68
2023-03-17T15:06:57.289Z,15.62
2023-03-17T15:10:57.253Z,15.65
2023-03-17T15:14:57.221Z,15.54
2023-03-17T15:18:57.177Z,15.61
2023-03-17T15:22:57.134Z,15.60
2023-03-17T15:26:57.390Z,15.67
2023-03-17T15:30:57.081Z,15.70
2023-03-17T15:34:57.177Z,15.55
2023-03-17T15:38:57.305Z,15.55
2023-03-17T15:42:57.509Z,15.77
2023-03-17T15:46:57.634Z,15.84
2023-03-17T15:50:57.737Z,15.77
2023-03-17T15:54:57.825Z,15.92
2023-03-17T15:58:57.899Z,16.07
2023-03-17T16:02:57.955Z,16.10
2023-03-17T16:06:58.042Z,16.14
2023-03-17T16:10:58.158Z,16.16
2023-03-17T16:14:58.191Z,16.22
2023-03-17T16:18:58.219Z,16.28
2023-03-17T16:22:58.229Z,16.24
2023-03-17T16:26:58.376Z,16.35
2023-03-17T16:30:58.400Z,16.24
2023-03-17T16:34:58.323Z,16.21
2023-03-17T16:38:58.342Z,16.26
2023-03-17T16:42:58.443Z,16.27
2023-03-17T16:46:58.477Z,16.27
2023-03-17T16:50:58.472Z,16.29
2023-03-17T16:54:58.566Z,16.37
2023-03-17T16:58:58.660Z,16.37
2023-03-17T17:02:58.811Z,16.53
2023-03-17T17:06:58.849Z,16.39
2023-03-17T17:10:58.995Z,16.47
2023-03-17T17:14:59.118Z,16.49
2023-03-17T17:18:59.255Z,16.57
2023-03-17T17:22:59.413Z,16.60
2023-03-17T17:26:59.602Z,16.61
2023-03-17T17:30:59.810Z,16.63
2023-03-17T17:35:00.019Z,16.60
2023-03-17T17:39:00.210Z,16.58
2023-03-17T17:43:00.427Z,16.71
2023-03-17T17:47:00.719Z,16.73
2023-03-17T17:51:00.854Z,16.67
2023-03-17T17:55:01.080Z,16.74
2023-03-17T17:59:01.017Z,16.77
2023-03-17T18:03:00.968Z,16.87
2023-03-17T18:07:00.952Z,16.91
2023-03-17T18:11:00.921Z,16.86
2023-03-17T18:15:00.850Z,16.90
2023-03-17T18:19:00.843Z,16.88
2023-03-17T18:23:00.805Z,16.97
2023-03-17T18:27:00.804Z,16.97
2023-03-17T18:31:00.720Z,17.09
2023-03-17T18:35:00.684Z,17.03
2023-03-17T18:39:01.015Z,17.10
2023-03-17T18:43:00.647Z,17.15
2023-03-17T18:47:00.636Z,17.22
2023-03-17T18:51:00.858Z,18.21
2023-03-17T18:55:01.031Z,18.11
2023-03-17T18:59:01.116Z,18.32
2023-03-17T19:03:01.219Z,18.54
2023-03-17T19:07:01.211Z,18.80
2023-03-17T19:11:01.204Z,18.86
2023-03-17T19:15:01.222Z,18.91
2023-03-17T19:19:01.385Z,19.09
2023-03-17T19:23:01.519Z,19.18
2023-03-17T19:27:01.718Z,19.28
2023-03-17T19:31:01.876Z,19.27
2023-03-17T19:35:01.806Z,19.12
2023-03-17T19:39:01.831Z,19.08
2023-03-17T19:43:01.766Z,19.04
2023-03-17T19:47:01.732Z,19.01
2023-03-17T19:51:01.689Z,18.84
2023-03-17T19:55:01.635Z,18.75
2023-03-17T19:59:01.623Z,18.72
2023-03-17T20:03:01.601Z,18.67
2023-03-17T20:07:01.525Z,18.70
2023-03-17T20:11:01.495Z,18.64
2023-03-17T20:15:01.469Z,18.66
2023-03-17T20:19:01.484Z,18.64
2023-03-17T20:23:01.426Z,18.50
2023-03-17T20:27:01.339Z,18.49
2023-03-17T20:31:01.420Z,18.59
2023-03-17T20:35:01.301Z,18.66
2023-03-17T20:39:01.246Z,18.79
2023-03-17T20:43:01.209Z,18.88
2023-03-17T20:47:01.183Z,18.83
2023-03-17T20:51:01.422Z,18.96
2023-03-17T20:55:01.593Z,19.00
2023-03-17T20:59:01.840Z,19.09
2023-03-17T21:03:02.008Z,19.04
2023-03-17T21:07:02.245Z,19.10
2023-03-17T21:11:02.208Z,19.20
2023-03-17T21:15:02.208Z,19.13
2023-03-17T21:19:02.123Z,19.19
2023-03-17T21:23:02.085Z,19.26
2023-03-17T21:27:02.064Z,19.26
2023-03-17T21:31:02.044Z,19.37
2023-03-17T21:35:02.016Z,19.31
2023-03-17T21:39:01.953Z,19.36
2023-03-17T21:43:01.927Z,19.40
2023-03-17T21:47:01.896Z,19.36
2023-03-17T21:51:01.868Z,19.43
2023-03-17T21:55:01.793Z,19.53
2023-03-17T21:59:01.781Z,19.61
2023-03-17T22:03:01.831Z,19.69
2023-03-17T22:07:01.674Z,19.85
2023-03-17T22:11:01.647Z,19.90
2023-03-17T22:15:01.629Z,19.90
2023-03-17T22:19:01.567Z,19.79
2023-03-17T22:23:01.568Z,19.81
2023-03-17T22:27:01.492Z,19.92
2023-03-17T22:31:01.466Z,19.96
2023-03-17T22:35:01.456Z,20.01
2023-03-17T22:39:01.453Z,20.10
2023-03-17T22:43:01.515Z,20.16
2023-03-17T22:47:01.549Z,20.16
2023-03-17T22:51:01.618Z,20.22
2023-03-17T22:55:01.645Z,20.22
2023-03-17T22:59:01.726Z,20.38
2023-03-17T23:03:01.801Z,20.14
2023-03-17T23:07:01.945Z,20.32
2023-03-17T23:11:02.017Z,20.32
2023-03-17T23:15:02.160Z,20.27
2023-03-17T23:19:02.226Z,20.23
2023-03-17T23:23:02.301Z,20.31
2023-03-17T23:27:02.373Z,20.29
2023-03-17T23:31:02.525Z,20.37
2023-03-17T23:35:02.538Z,20.26
2023-03-17T23:39:02.620Z,20.32
2023-03-17T23:43:02.702Z,20.31
2023-03-17T23:47:02.756Z,20.35
2023-03-17T23:51:02.913Z,20.45
2023-03-17T23:55:03.018Z,20.43
2023-03-17T23:59:03.660Z,20.46
